createdAt,value
2022-10-19T00:01:19.926Z,99720.38
2022-10-19T00:03:51.075Z,99717.56
2022-10-19T00:06:25.866Z,99722.84
2022-10-19T00:08:56.918Z,99722.53
2022-10-19T00:11:24.916Z,99721.97
2022-10-19T00:13:54.782Z,99725.47
2022-10-19T00:16:26.593Z,99720.19
2022-10-19T00:18:57.920Z,99723.97
2022-10-19T00:21:25.307Z,99725.34
2022-10-19T00:23:52.371Z,99727.00
2022-10-19T00:26:19.645Z,99721.81
2022-10-19T00:28:46.922Z,99718.31
2022-10-19T00:31:17.956Z,99713.84
2022-10-19T00:33:48.746Z,99715.72
2022-10-19T00:36:24.572Z,99721.16
2022-10-19T00:38:52.389Z,99719.41
2022-10-19T00:41:22.169Z,99713.25
2022-10-19T00:44:16.588Z,99721.16
2022-10-19T00:46:50.663Z,99722.25
2022-10-19T00:49:25.919Z,99724.47
2022-10-19T00:51:57.429Z,99724.81
2022-10-19T00:54:25.907Z,99726.09
2022-10-19T00:56:56.764Z,99735.88
2022-10-19T00:59:25.737Z,99731.03
2022-10-19T01:01:54.513Z,99737.53
2022-10-19T01:04:22.549Z,99731.59
2022-10-19T01:09:22.412Z,99734.78
2022-10-19T01:12:20.120Z,99738.47
2022-10-19T01:15:15.479Z,99733.69
2022-10-19T01:18:00.886Z,99733.03
2022-10-19T01:20:43.415Z,99731.63
2022-10-19T01:23:48.433Z,99724.44
2022-10-19T01:26:56.732Z,99722.31
2022-10-19T01:29:54.741Z,99720.84
2022-10-19T01:32:45.677Z,99711.53
2022-10-19T01:35:45.532Z,99708.81
2022-10-19T01:38:41.848Z,99705.50
2022-10-19T01:41:23.565Z,99713.03
2022-10-19T01:44:23.545Z,99706.38
2022-10-19T01:47:07.344Z,99707.34
2022-10-19T01:49:42.904Z,99704.16
2022-10-19T01:52:14.073Z,99696.19
2022-10-19T01:54:48.434Z,99700.41
2022-10-19T01:57:22.797Z,99695.31
2022-10-19T01:59:50.441Z,99695.53
2022-10-19T02:02:19.910Z,99680.59
2022-10-19T02:04:49.915Z,99687.28
2022-10-19T02:07:20.947Z,99686.63
2022-10-19T02:09:48.428Z,99681.31
2022-10-19T02:12:16.341Z,99683.22
2022-10-19T02:14:47.932Z,99689.00
2022-10-19T02:17:21.601Z,99695.94
2022-10-19T02:19:48.794Z,99686.81
2022-10-19T02:22:15.775Z,99688.66
2022-10-19T02:24:42.804Z,99685.66
2022-10-19T02:27:10.104Z,99675.38
2022-10-19T02:29:38.683Z,99679.28
2022-10-19T02:32:06.799Z,99677.44
2022-10-19T02:34:35.366Z,99675.66
2022-10-19T02:37:02.490Z,99667.09
2022-10-19T02:39:29.494Z,99667.94
2022-10-19T02:42:16.189Z,99670.59
2022-10-19T02:44:59.268Z,99668.47
2022-10-19T02:47:35.798Z,99661.09
2022-10-19T02:50:08.632Z,99670.75
2022-10-19T02:52:40.581Z,99672.53
2022-10-19T02:55:09.236Z,99666.00
2022-10-19T02:57:37.251Z,99662.88
2022-10-19T03:00:07.317Z,99661.81
2022-10-19T03:02:34.365Z,99664.28
2022-10-19T03:05:01.577Z,99654.44
2022-10-19T03:07:28.989Z,99656.88
2022-10-19T03:09:56.367Z,99656.53
2022-10-19T03:12:23.641Z,99643.88
2022-10-19T03:14:51.862Z,99644.59
2022-10-19T03:17:19.685Z,99644.41
2022-10-19T03:19:47.332Z,99628.44
2022-10-19T03:22:14.933Z,99641.78
2022-10-19T03:24:42.107Z,99640.81
2022-10-19T03:27:09.663Z,99637.56
2022-10-19T03:33:23.557Z,99635.28
2022-10-19T03:35:51.089Z,99634.06
2022-10-19T03:38:18.100Z,99638.63
2022-10-19T03:40:45.302Z,99634.84
2022-10-19T03:43:13.106Z,99644.84
2022-10-19T03:45:40.264Z,99637.75
2022-10-19T03:48:07.987Z,99636.69
2022-10-19T03:50:35.034Z,99636.13
2022-10-19T03:55:30.602Z,99640.56
2022-10-19T03:57:57.939Z,99637.66
2022-10-19T04:00:25.181Z,99637.75
2022-10-19T04:02:52.444Z,99638.31
2022-10-19T04:05:19.439Z,99632.56
2022-10-19T04:07:46.419Z,99627.22
2022-10-19T04:10:13.444Z,99630.47
2022-10-19T04:12:40.462Z,99633.53
2022-10-19T04:15:08.265Z,99629.59
2022-10-19T04:17:35.537Z,99622.03
2022-10-19T04:20:02.919Z,99633.03
2022-10-19T04:22:29.900Z,99625.66
2022-10-19T04:24:56.918Z,99628.53
2022-10-19T04:27:30.788Z,99635.66
2022-10-19T04:29:58.112Z,99635.63
2022-10-19T04:32:25.151Z,99635.47
2022-10-19T04:34:52.158Z,99638.28
2022-10-19T04:37:19.127Z,99635.09
2022-10-19T04:39:46.146Z,99637.59
2022-10-19T04:42:13.149Z,99629.97
2022-10-19T04:44:40.322Z,99635.31
2022-10-19T04:47:07.771Z,99634.63
2022-10-19T04:49:34.797Z,99638.09
2022-10-19T04:52:04.951Z,99635.97
2022-10-19T04:54:31.972Z,99637.38
2022-10-19T04:56:58.957Z,99634.66
2022-10-19T04:59:26.006Z,99625.28
2022-10-19T05:01:52.980Z,99634.25
2022-10-19T05:04:19.973Z,99632.22
2022-10-19T05:06:50.133Z,99627.94
2022-10-19T05:09:17.207Z,99628.81
2022-10-19T05:11:44.251Z,99626.81
2022-10-19T05:14:39.041Z,99636.69
2022-10-19T05:17:09.201Z,99637.03
2022-10-19T05:19:36.621Z,99633.03
2022-10-19T05:22:03.804Z,99635.72
2022-10-19T05:24:37.749Z,99632.50
2022-10-19T05:27:04.869Z,99626.88
2022-10-19T05:29:33.884Z,99629.94
2022-10-19T05:32:00.930Z,99631.63
2022-10-19T05:34:27.957Z,99633.53
2022-10-19T05:38:10.235Z,99623.19
2022-10-19T05:40:37.821Z,99625.47
2022-10-19T05:43:05.113Z,99621.38
2022-10-19T05:45:32.114Z,99627.91
2022-10-19T05:47:59.114Z,99621.22
2022-10-19T05:50:26.132Z,99624.81
2022-10-19T05:52:53.205Z,99616.09
2022-10-19T05:55:20.523Z,99620.56
2022-10-19T05:57:47.783Z,99624.00
2022-10-19T06:00:15.104Z,99627.03
2022-10-19T06:02:42.216Z,99628.78
2022-10-19T06:05:09.513Z,99631.41
2022-10-19T06:07:36.887Z,99635.81
2022-10-19T06:10:04.605Z,99638.97
2022-10-19T06:12:31.639Z,99639.34
2022-10-19T06:14:58.672Z,99639.13
2022-10-19T06:17:29.036Z,99638.41
2022-10-19T06:19:56.094Z,99637.28
2022-10-19T06:22:23.187Z,99636.84
2022-10-19T06:24:50.966Z,99636.28
2022-10-19T06:27:18.087Z,99636.25
2022-10-19T06:29:45.154Z,99637.44
2022-10-19T06:32:12.209Z,99631.34
2022-10-19T06:34:39.366Z,99641.84
2022-10-19T06:37:06.398Z,99646.00
2022-10-19T06:39:33.506Z,99638.69
2022-10-19T06:42:00.579Z,99649.19
2022-10-19T06:44:27.567Z,99650.41
2022-10-19T06:46:54.650Z,99654.25
2022-10-19T06:49:21.675Z,99656.66
2022-10-19T06:51:48.709Z,99646.69
2022-10-19T06:55:30.938Z,99654.88
2022-10-19T07:01:44.239Z,99653.34
2022-10-19T07:11:45.554Z,99648.31
2022-10-19T07:14:39.790Z,99651.06
2022-10-19T07:17:08.152Z,99649.56
2022-10-19T07:19:35.201Z,99652.06
2022-10-19T07:22:02.324Z,99646.00
2022-10-19T07:24:29.720Z,99644.28
2022-10-19T07:26:58.459Z,99651.59
2022-10-19T07:29:34.531Z,99660.28
2022-10-19T07:32:01.819Z,99648.59
2022-10-19T07:34:29.245Z,99660.41
2022-10-19T07:36:56.459Z,99648.63
2022-10-19T07:39:23.601Z,99660.75
2022-10-19T07:41:50.724Z,99658.34
2022-10-19T07:44:18.035Z,99655.13
2022-10-19T07:46:45.353Z,99659.53
2022-10-19T07:49:16.465Z,99656.44
2022-10-19T07:51:54.070Z,99649.63
2022-10-19T07:54:21.537Z,99650.13
2022-10-19T07:56:48.609Z,99651.59
2022-10-19T07:59:17.310Z,99646.78
2022-10-19T08:01:45.119Z,99648.31
2022-10-19T08:06:59.252Z,99655.31
2022-10-19T08:09:53.314Z,99644.97
2022-10-19T08:12:15.457Z,99651.41
2022-10-19T08:14:43.023Z,99649.69
2022-10-19T08:17:16.950Z,99645.38
2022-10-19T08:19:53.377Z,99653.00
2022-10-19T08:22:20.402Z,99656.69
2022-10-19T08:24:49.944Z,99650.03
2022-10-19T08:27:42.475Z,99660.00
2022-10-19T08:30:10.078Z,99646.41
2022-10-19T08:32:37.225Z,99645.88
2022-10-19T08:35:08.493Z,99652.41
2022-10-19T08:37:45.240Z,99645.91
2022-10-19T08:40:24.813Z,99646.47
2022-10-19T08:43:24.748Z,99640.69
2022-10-19T08:46:23.658Z,99643.38
2022-10-19T08:48:52.202Z,99635.44
2022-10-19T08:51:19.448Z,99642.59
2022-10-19T08:53:53.903Z,99636.97
2022-10-19T08:56:51.930Z,99646.38
2022-10-19T08:59:40.787Z,99644.84
2022-10-19T09:02:19.376Z,99652.63
2022-10-19T09:04:53.072Z,99645.78
2022-10-19T09:07:24.410Z,99654.97
2022-10-19T09:10:03.568Z,99647.50
2022-10-19T09:12:44.079Z,99642.47
